createdAt,value
2018-07-13T00:01:29.628Z,18.10
2018-07-13T00:03:57.106Z,18.00
2018-07-13T00:06:24.455Z,18.10
2018-07-13T00:08:51.944Z,18.00
2018-07-13T00:11:19.310Z,17.90
2018-07-13T00:14:08.495Z,17.80
2018-07-13T00:16:35.862Z,17.80
2018-07-13T00:19:03.256Z,17.60
2018-07-13T00:21:30.714Z,17.70
2018-07-13T00:23:58.158Z,17.60
2018-07-13T00:26:25.649Z,17.60
2018-07-13T00:28:53.034Z,17.50
2018-07-13T00:31:20.402Z,17.50
2018-07-13T00:33:47.740Z,17.50
2018-07-13T00:36:15.098Z,17.30
2018-07-13T00:38:42.530Z,17.20
2018-07-13T00:41:09.998Z,17.20
2018-07-13T00:43:37.379Z,17.20
2018-07-13T00:46:04.791Z,17.20
2018-07-13T00:48:32.217Z,17.10
2018-07-13T00:50:59.625Z,17.10
2018-07-13T00:53:27.037Z,17.00
2018-07-13T00:55:54.385Z,17.00
2018-07-13T00:58:21.942Z,17.00
2018-07-13T01:00:49.354Z,16.80
2018-07-13T01:03:16.749Z,16.70
2018-07-13T01:05:44.241Z,16.60
2018-07-13T01:08:11.644Z,16.40
2018-07-13T01:10:39.083Z,16.30
2018-07-13T01:13:06.525Z,16.30
2018-07-13T01:15:33.977Z,16.30
2018-07-13T01:18:01.441Z,16.30
2018-07-13T01:20:28.781Z,16.30
2018-07-13T01:25:23.482Z,16.30
2018-07-13T01:27:50.933Z,16.30
2018-07-13T01:30:18.517Z,16.30
2018-07-13T01:32:45.877Z,16.40
2018-07-13T01:35:13.163Z,16.40
2018-07-13T01:37:40.459Z,16.50
2018-07-13T01:40:07.905Z,16.40
2018-07-13T01:45:02.611Z,16.20
2018-07-13T01:47:30.077Z,16.20
2018-07-13T01:49:57.549Z,16.20
2018-07-13T01:52:24.887Z,16.20
2018-07-13T01:54:52.286Z,16.10
2018-07-13T01:57:19.646Z,16.10
2018-07-13T01:59:47.256Z,15.90
2018-07-13T02:02:14.708Z,15.90
2018-07-13T02:04:42.259Z,15.80
2018-07-13T02:07:09.718Z,15.60
2018-07-13T02:09:37.051Z,15.70
2018-07-13T02:12:04.606Z,15.70
2018-07-13T02:14:31.992Z,15.60
2018-07-13T02:16:59.370Z,15.60
2018-07-13T02:19:26.706Z,15.60
2018-07-13T02:21:54.058Z,15.60
2018-07-13T02:24:21.386Z,15.50
2018-07-13T02:26:48.842Z,15.60
2018-07-13T02:29:16.254Z,15.60
2018-07-13T02:34:11.170Z,15.40
2018-07-13T02:36:38.510Z,15.40
2018-07-13T02:39:07.261Z,15.40
2018-07-13T02:41:34.667Z,15.50
2018-07-13T02:44:02.023Z,15.40
2018-07-13T02:46:29.375Z,15.30
2018-07-13T02:48:56.770Z,15.30
2018-07-13T02:51:24.066Z,15.30
2018-07-13T02:53:51.446Z,15.30
2018-07-13T02:56:18.902Z,15.30
2018-07-13T02:58:46.376Z,15.20
2018-07-13T03:01:13.850Z,15.20
2018-07-13T03:03:41.358Z,15.00
2018-07-13T03:06:08.798Z,15.00
2018-07-13T03:08:36.179Z,15.00
2018-07-13T03:11:03.598Z,15.10
2018-07-13T03:13:31.004Z,15.10
2018-07-13T03:15:58.402Z,15.10
2018-07-13T03:18:25.778Z,15.10
2018-07-13T03:20:53.227Z,15.00
2018-07-13T03:23:20.654Z,15.00
2018-07-13T03:25:48.058Z,14.80
2018-07-13T03:28:15.492Z,14.70
2018-07-13T03:30:43.112Z,14.60
2018-07-13T03:33:10.534Z,14.60
2018-07-13T03:35:37.925Z,14.60
2018-07-13T03:38:05.271Z,14.60
2018-07-13T03:40:32.707Z,14.60
2018-07-13T03:43:00.067Z,14.60
2018-07-13T03:45:27.544Z,14.70
2018-07-13T03:47:54.930Z,14.70
2018-07-13T03:50:22.339Z,14.50
2018-07-13T03:52:49.809Z,14.50
2018-07-13T03:55:17.305Z,14.60
2018-07-13T03:57:44.652Z,14.60
2018-07-13T04:00:11.993Z,14.70
2018-07-13T04:02:39.370Z,14.80
2018-07-13T04:05:06.778Z,14.80
2018-07-13T04:07:34.266Z,15.00
2018-07-13T04:10:01.684Z,15.10
2018-07-13T04:12:29.165Z,15.10
2018-07-13T04:14:57.539Z,15.20
2018-07-13T04:17:24.946Z,15.40
2018-07-13T04:19:52.385Z,15.40
2018-07-13T04:22:19.847Z,15.40
2018-07-13T04:24:47.341Z,15.40
2018-07-13T04:27:15.394Z,15.30
2018-07-13T04:29:42.961Z,15.30
2018-07-13T04:32:10.313Z,15.30
2018-07-13T04:34:37.649Z,15.40
2018-07-13T04:37:04.985Z,15.40
2018-07-13T04:39:32.469Z,15.40
2018-07-13T04:41:59.922Z,15.40
2018-07-13T04:44:27.310Z,15.40
2018-07-13T04:46:54.893Z,15.50
2018-07-13T04:49:22.427Z,15.40
2018-07-13T04:51:49.832Z,15.30
2018-07-13T04:54:17.256Z,15.40
2018-07-13T04:56:44.721Z,15.40
2018-07-13T04:59:12.249Z,15.40
2018-07-13T05:01:39.767Z,15.50
2018-07-13T05:04:07.332Z,15.60
2018-07-13T05:06:34.855Z,15.70
2018-07-13T05:09:02.665Z,15.90
2018-07-13T05:11:48.364Z,16.00
2018-07-13T05:14:16.266Z,16.10
2018-07-13T05:16:43.616Z,16.20
2018-07-13T05:19:10.948Z,16.20
2018-07-13T05:21:38.358Z,16.40
2018-07-13T05:24:05.884Z,16.50
2018-07-13T05:26:33.360Z,16.50
2018-07-13T05:29:00.798Z,16.50
2018-07-13T05:31:28.245Z,16.60
2018-07-13T05:33:55.777Z,16.70
2018-07-13T05:36:23.247Z,16.90
2018-07-13T05:38:51.140Z,17.00
2018-07-13T05:41:19.358Z,17.20
2018-07-13T05:43:47.086Z,17.20
2018-07-13T05:46:14.518Z,17.30
2018-07-13T05:48:41.976Z,17.20
2018-07-13T05:51:09.545Z,17.10
2018-07-13T05:53:37.332Z,17.30
2018-07-13T05:56:04.958Z,17.50
2018-07-13T05:58:32.521Z,17.50
2018-07-13T06:00:59.995Z,17.50
2018-07-13T06:03:27.586Z,17.60
2018-07-13T06:05:55.038Z,17.70
2018-07-13T06:08:22.549Z,17.70
2018-07-13T06:10:50.709Z,17.80
2018-07-13T06:13:18.293Z,18.00
2018-07-13T06:15:45.689Z,18.00
2018-07-13T06:18:13.057Z,18.20
2018-07-13T06:20:40.549Z,18.40
2018-07-13T06:23:07.941Z,18.40
2018-07-13T06:25:35.284Z,18.50
2018-07-13T06:28:02.795Z,18.70
2018-07-13T06:30:30.128Z,18.90
2018-07-13T06:32:57.661Z,19.20
2018-07-13T06:35:25.112Z,19.20
2018-07-13T06:37:52.458Z,19.40
2018-07-13T06:40:19.958Z,19.30
2018-07-13T06:42:47.352Z,19.20
2018-07-13T06:45:14.870Z,19.50
2018-07-13T06:47:42.344Z,19.40
2018-07-13T06:50:09.810Z,19.50
2018-07-13T06:52:37.274Z,19.70
2018-07-13T06:55:04.682Z,19.90
2018-07-13T06:57:44.481Z,20.00
2018-07-13T07:00:58.449Z,20.00
2018-07-13T07:03:27.094Z,20.20
2018-07-13T07:05:59.239Z,20.20
2018-07-13T07:08:26.722Z,20.40
2018-07-13T07:10:54.152Z,20.50
2018-07-13T07:13:28.594Z,20.50
2018-07-13T07:15:56.063Z,20.30
2018-07-13T07:18:23.626Z,20.50
2018-07-13T07:20:51.129Z,20.70
2018-07-13T07:23:18.570Z,20.80
2018-07-13T07:25:46.061Z,20.90
2018-07-13T07:28:13.482Z,21.00
2018-07-13T07:30:41.047Z,21.00
2018-07-13T07:33:08.387Z,21.00
2018-07-13T07:35:35.903Z,21.10
2018-07-13T07:38:03.375Z,21.10
2018-07-13T07:40:31.057Z,21.20
2018-07-13T07:42:58.568Z,21.20
2018-07-13T07:45:26.052Z,21.30
2018-07-13T07:47:53.379Z,21.40
2018-07-13T07:50:20.769Z,21.40
2018-07-13T07:52:48.145Z,21.30
2018-07-13T07:55:15.630Z,21.40
2018-07-13T07:57:43.592Z,21.40
2018-07-13T08:00:11.264Z,21.60
2018-07-13T08:02:38.914Z,22.00
2018-07-13T08:07:33.907Z,22.40
2018-07-13T08:10:02.088Z,22.40
2018-07-13T08:12:29.652Z,22.60
2018-07-13T08:14:57.302Z,22.70
2018-07-13T08:17:24.850Z,22.50
2018-07-13T08:19:52.447Z,22.60
2018-07-13T08:22:23.090Z,22.50
2018-07-13T08:24:53.626Z,22.40
2018-07-13T08:27:22.991Z,22.30
2018-07-13T08:29:52.403Z,22.30
2018-07-13T08:32:19.861Z,22.30
2018-07-13T08:37:14.863Z,22.30
2018-07-13T08:39:42.298Z,22.30
2018-07-13T08:42:09.882Z,22.30
2018-07-13T08:44:37.223Z,22.40
2018-07-13T08:47:04.726Z,22.70
2018-07-13T08:49:32.046Z,22.70
2018-07-13T08:51:59.539Z,22.90
2018-07-13T08:54:26.970Z,23.30
2018-07-13T08:56:54.767Z,23.60
2018-07-13T08:59:22.829Z,23.70
2018-07-13T09:01:50.307Z,23.40
2018-07-13T09:04:17.804Z,23.50
2018-07-13T09:06:45.155Z,23.70
2018-07-13T09:09:14.867Z,24.10
2018-07-13T09:11:42.403Z,24.10
2018-07-13T09:19:05.297Z,24.40
2018-07-13T09:21:32.859Z,24.60
2018-07-13T09:24:00.581Z,24.60
2018-07-13T09:26:28.072Z,24.60
2018-07-13T09:28:55.422Z,24.30
2018-07-13T09:31:22.798Z,24.50
2018-07-13T09:33:50.970Z,24.80
2018-07-13T09:36:18.476Z,25.00
2018-07-13T09:38:46.066Z,24.40
2018-07-13T09:41:13.648Z,24.60
2018-07-13T09:43:41.133Z,25.10
2018-07-13T09:48:35.983Z,25.30
2018-07-13T09:51:19.653Z,24.90
2018-07-13T09:53:47.489Z,25.10
2018-07-13T09:56:16.497Z,25.50
2018-07-13T09:58:43.942Z,25.60
2018-07-13T10:01:17.002Z,26.00
2018-07-13T10:03:44.486Z,26.20
2018-07-13T10:06:11.918Z,26.30
2018-07-13T10:08:57.377Z,26.20
2018-07-13T10:12:20.689Z,25.90
2018-07-13T10:14:56.506Z,25.50
2018-07-13T10:17:46.478Z,25.00
2018-07-13T10:20:22.796Z,25.20
2018-07-13T10:22:50.285Z,25.20
2018-07-13T10:26:44.268Z,25.10
2018-07-13T10:29:19.157Z,24.80
2018-07-13T10:31:47.229Z,24.70
2018-07-13T10:34:16.547Z,25.10
2018-07-13T10:36:48.251Z,25.00
2018-07-13T10:39:15.966Z,24.80
2018-07-13T10:41:43.440Z,24.60
2018-07-13T10:44:10.894Z,24.60
2018-07-13T10:46:39.147Z,24.80
2018-07-13T10:49:07.570Z,25.30
2018-07-13T10:51:35.100Z,25.70
2018-07-13T10:54:02.504Z,26.00
2018-07-13T10:56:29.939Z,26.40
2018-07-13T10:58:58.169Z,26.60
2018-07-13T11:01:25.689Z,26.20
2018-07-13T11:03:53.085Z,26.40
2018-07-13T11:06:20.453Z,26.70
2018-07-13T11:08:47.755Z,26.50
2018-07-13T11:11:15.225Z,26.30
2018-07-13T11:13:42.750Z,26.20
2018-07-13T11:16:10.103Z,26.30
2018-07-13T11:18:37.673Z,26.10
2018-07-13T11:21:05.315Z,26.20
2018-07-13T11:23:32.741Z,26.40
2018-07-13T11:26:00.516Z,26.50
2018-07-13T11:28:27.903Z,26.60
2018-07-13T11:30:55.297Z,26.40
2018-07-13T11:33:22.830Z,26.50
2018-07-13T11:35:50.278Z,26.60
2018-07-13T11:38:17.690Z,26.70
2018-07-13T11:40:45.173Z,27.10
2018-07-13T11:43:12.588Z,27.50
2018-07-13T11:45:40.193Z,27.50
2018-07-13T11:48:07.504Z,27.70
2018-07-13T11:50:34.946Z,27.50
2018-07-13T11:53:02.409Z,27.20
2018-07-13T11:55:29.834Z,27.30
2018-07-13T11:57:57.294Z,27.50
2018-07-13T12:00:25.055Z,27.70
2018-07-13T12:02:52.518Z,27.50
2018-07-13T12:05:19.924Z,27.60
2018-07-13T12:07:47.483Z,27.70
2018-07-13T12:10:14.720Z,27.60
2018-07-13T12:12:42.438Z,27.70
2018-07-13T12:15:09.794Z,27.90
2018-07-13T12:17:37.188Z,28.00
2018-07-13T12:20:05.717Z,28.00
2018-07-13T12:22:33.238Z,27.80
2018-07-13T12:25:00.656Z,27.70
2018-07-13T12:27:28.133Z,27.50
2018-07-13T12:29:55.851Z,27.10
2018-07-13T12:32:23.433Z,26.60
2018-07-13T12:34:50.844Z,26.60
2018-07-13T12:37:18.226Z,26.60
2018-07-13T12:39:47.094Z,26.80
2018-07-13T12:42:14.455Z,26.80
2018-07-13T12:44:42.416Z,26.50
2018-07-13T12:47:09.930Z,26.60
2018-07-13T12:49:38.006Z,26.50
2018-07-13T12:52:07.403Z,26.60
2018-07-13T12:54:35.217Z,27.00
2018-07-13T12:57:02.647Z,27.30
2018-07-13T12:59:30.925Z,27.20
2018-07-13T13:01:59.010Z,27.20
2018-07-13T13:07:00.231Z,27.40
2018-07-13T13:09:41.956Z,27.60
2018-07-13T13:12:10.750Z,27.80
2018-07-13T13:14:38.090Z,27.80
2018-07-13T13:17:05.527Z,27.70
2018-07-13T13:19:33.239Z,27.90
2018-07-13T13:22:01.428Z,28.00
2018-07-13T13:24:28.845Z,28.10
2018-07-13T13:26:56.349Z,28.10
2018-07-13T13:29:24.016Z,28.40
2018-07-13T13:31:51.326Z,28.40
2018-07-13T13:36:46.233Z,28.70
2018-07-13T13:39:13.659Z,28.70
2018-07-13T13:41:41.099Z,29.00
2018-07-13T13:44:08.527Z,29.20
2018-07-13T13:46:35.834Z,29.10
2018-07-13T13:49:03.322Z,28.60
2018-07-13T13:51:30.779Z,28.40
2018-07-13T13:53:58.405Z,28.00
2018-07-13T13:56:25.842Z,27.70
2018-07-13T13:58:53.335Z,27.60
2018-07-13T14:01:20.690Z,27.60
2018-07-13T14:03:48.210Z,27.50
2018-07-13T14:06:15.587Z,27.10
2018-07-13T14:08:42.950Z,27.00
2018-07-13T14:11:10.284Z,26.80
2018-07-13T14:13:37.711Z,26.80
2018-07-13T14:16:05.632Z,26.70
2018-07-13T14:18:33.073Z,26.60
2018-07-13T14:21:00.558Z,26.70
2018-07-13T14:23:27.994Z,26.60
2018-07-13T14:25:55.497Z,26.40
2018-07-13T14:28:22.938Z,26.50
2018-07-13T14:30:50.360Z,26.40
2018-07-13T14:33:17.787Z,26.00
2018-07-13T14:35:45.156Z,25.60
2018-07-13T14:38:12.577Z,25.50
2018-07-13T14:40:40.165Z,25.40
2018-07-13T14:43:07.625Z,25.30
2018-07-13T14:45:35.054Z,25.50
2018-07-13T14:48:02.525Z,25.70
2018-07-13T14:50:29.993Z,25.80
2018-07-13T14:52:57.511Z,25.90
2018-07-13T14:55:25.051Z,25.60
2018-07-13T14:57:52.602Z,25.60
2018-07-13T15:00:20.090Z,25.50
2018-07-13T15:02:47.489Z,25.70
2018-07-13T15:05:14.929Z,26.10
2018-07-13T15:07:42.311Z,26.40
2018-07-13T15:10:09.848Z,26.60
2018-07-13T15:12:37.265Z,26.60
2018-07-13T15:15:06.772Z,26.70
2018-07-13T15:17:34.241Z,26.30
2018-07-13T15:20:01.665Z,26.10
2018-07-13T15:22:29.257Z,26.10
2018-07-13T15:24:56.682Z,26.20
2018-07-13T15:27:24.085Z,26.10
2018-07-13T15:29:51.503Z,26.10
2018-07-13T15:32:19.052Z,26.10
2018-07-13T15:34:46.512Z,26.00
2018-07-13T15:37:13.846Z,25.80
2018-07-13T15:39:41.179Z,25.70
2018-07-13T15:42:09.595Z,25.70
2018-07-13T15:44:37.036Z,25.60
2018-07-13T15:47:04.527Z,25.60
2018-07-13T15:51:59.217Z,25.70
2018-07-13T15:54:26.682Z,25.80
2018-07-13T15:56:54.141Z,25.70
2018-07-13T15:59:21.664Z,25.80
2018-07-13T16:01:49.040Z,25.90
2018-07-13T16:04:16.406Z,26.00
2018-07-13T16:06:43.832Z,26.00
2018-07-13T16:09:11.206Z,26.20
2018-07-13T16:11:38.598Z,26.30
2018-07-13T16:14:05.989Z,26.40
2018-07-13T16:16:33.416Z,26.40
2018-07-13T16:19:00.782Z,26.40
2018-07-13T16:23:55.526Z,26.20
2018-07-13T16:26:22.959Z,26.20
2018-07-13T16:28:50.430Z,26.20
2018-07-13T16:31:17.926Z,26.10
2018-07-13T16:33:45.438Z,26.10
2018-07-13T16:36:12.840Z,26.10
2018-07-13T16:38:40.235Z,26.10
2018-07-13T16:41:07.638Z,26.10
2018-07-13T16:43:35.046Z,26.10
2018-07-13T16:46:02.493Z,26.00
2018-07-13T16:48:29.834Z,26.00
2018-07-13T16:50:57.259Z,25.90
2018-07-13T16:53:24.648Z,25.90
2018-07-13T16:55:51.994Z,25.90
2018-07-13T16:58:19.393Z,25.90
2018-07-13T17:00:46.861Z,25.80
2018-07-13T17:03:16.791Z,25.80
2018-07-13T17:05:44.220Z,25.70
2018-07-13T17:08:11.640Z,25.70
2018-07-13T17:10:39.021Z,25.70
2018-07-13T17:13:06.479Z,25.70
2018-07-13T17:15:33.927Z,25.60
2018-07-13T17:18:01.350Z,25.50
2018-07-13T17:20:29.045Z,25.50
2018-07-13T17:22:56.506Z,25.50
2018-07-13T17:25:23.936Z,25.40
2018-07-13T17:27:51.346Z,25.40
2018-07-13T17:30:18.760Z,25.40
2018-07-13T17:32:46.082Z,25.40
2018-07-13T17:35:13.770Z,25.40
2018-07-13T17:37:40.992Z,25.30
2018-07-13T17:40:08.437Z,25.30
2018-07-13T17:42:35.894Z,25.30
2018-07-13T17:45:03.649Z,25.30
2018-07-13T17:47:31.086Z,25.20
2018-07-13T17:49:58.438Z,25.20
2018-07-13T17:52:25.890Z,25.10
2018-07-13T17:54:54.095Z,25.10
2018-07-13T17:57:21.480Z,25.10
2018-07-13T17:59:49.457Z,25.20
2018-07-13T18:02:16.809Z,25.10
2018-07-13T18:04:44.262Z,25.10
2018-07-13T18:07:11.733Z,25.10
2018-07-13T18:09:39.095Z,25.00
2018-07-13T18:12:06.630Z,25.10
2018-07-13T18:14:33.961Z,25.00
2018-07-13T18:17:01.294Z,25.00
2018-07-13T18:19:28.639Z,24.90
2018-07-13T18:21:56.058Z,24.80
2018-07-13T18:24:23.572Z,24.70
2018-07-13T18:26:51.057Z,24.60
2018-07-13T18:29:18.506Z,24.60
2018-07-13T18:31:45.926Z,24.50
2018-07-13T18:34:13.395Z,24.50
2018-07-13T18:36:40.775Z,24.40
2018-07-13T18:39:08.186Z,24.30
2018-07-13T18:41:35.626Z,24.20
2018-07-13T18:44:03.087Z,24.10
2018-07-13T18:46:30.422Z,24.10
2018-07-13T18:48:57.794Z,24.10
2018-07-13T18:51:25.222Z,24.00
2018-07-13T18:53:52.681Z,24.00
2018-07-13T18:56:20.133Z,23.90
2018-07-13T18:58:47.683Z,23.90
2018-07-13T19:01:15.276Z,23.80
2018-07-13T19:03:42.762Z,23.80
2018-07-13T19:06:10.203Z,23.70
2018-07-13T19:08:37.734Z,23.60
2018-07-13T19:11:05.172Z,23.50
2018-07-13T19:13:32.750Z,23.40
2018-07-13T19:16:00.423Z,23.30
2018-07-13T19:18:27.847Z,23.30
2018-07-13T19:20:55.474Z,23.20
2018-07-13T19:23:22.909Z,23.10
2018-07-13T19:25:50.268Z,23.00
2018-07-13T19:30:45.199Z,22.70
2018-07-13T19:33:12.521Z,22.80
2018-07-13T19:35:39.971Z,22.80
2018-07-13T19:38:07.420Z,22.70
2018-07-13T19:40:34.866Z,22.60
2018-07-13T19:43:02.346Z,22.50
2018-07-13T19:45:29.722Z,22.50
2018-07-13T19:47:57.168Z,22.40
2018-07-13T19:50:24.641Z,22.40
2018-07-13T19:52:53.410Z,22.30
2018-07-13T19:55:20.957Z,22.30
2018-07-13T19:57:48.362Z,22.20
2018-07-13T20:00:18.212Z,22.10
2018-07-13T20:02:46.991Z,21.90
2018-07-13T20:05:15.316Z,21.80
2018-07-13T20:07:42.925Z,21.80
2018-07-13T20:10:10.360Z,21.70
2018-07-13T20:12:37.742Z,21.70
2018-07-13T20:15:05.402Z,21.70
2018-07-13T20:17:32.907Z,21.50
2018-07-13T20:20:00.963Z,21.40
2018-07-13T20:22:28.284Z,21.30
2018-07-13T20:24:55.882Z,21.30
2018-07-13T20:27:23.335Z,21.10
2018-07-13T20:29:50.866Z,21.20
2018-07-13T20:32:18.522Z,21.20
2018-07-13T20:34:46.014Z,21.00
2018-07-13T20:37:13.592Z,20.80
2018-07-13T20:39:41.773Z,20.60
2018-07-13T20:42:09.203Z,20.50
2018-07-13T20:44:37.286Z,20.40
2018-07-13T20:47:05.651Z,20.50
2018-07-13T20:49:33.735Z,20.60
2018-07-13T20:52:01.175Z,20.70
2018-07-13T20:54:28.677Z,20.50
2018-07-13T20:56:56.753Z,20.40
2018-07-13T20:59:24.236Z,20.40
2018-07-13T21:01:51.736Z,20.40
2018-07-13T21:04:19.208Z,20.40
2018-07-13T21:06:46.571Z,20.40
2018-07-13T21:09:14.049Z,20.30
2018-07-13T21:11:41.507Z,20.20
2018-07-13T21:14:08.889Z,20.20
2018-07-13T21:16:36.279Z,20.20
2018-07-13T21:19:03.687Z,20.10
2018-07-13T21:21:31.061Z,20.00
2018-07-13T21:23:58.511Z,19.90
2018-07-13T21:26:26.443Z,19.80
2018-07-13T21:28:53.850Z,19.80
2018-07-13T21:31:21.235Z,19.70
2018-07-13T21:33:48.661Z,19.60
2018-07-13T21:36:16.087Z,19.50
2018-07-13T21:38:44.480Z,19.50
2018-07-13T21:41:12.541Z,19.40
2018-07-13T21:43:39.855Z,19.40
2018-07-13T21:46:07.363Z,19.50
2018-07-13T21:48:35.346Z,19.60
2018-07-13T21:51:03.735Z,19.50
2018-07-13T21:53:33.032Z,19.50
2018-07-13T21:56:00.422Z,19.40
2018-07-13T21:58:27.888Z,19.30
2018-07-13T22:00:55.184Z,19.30
2018-07-13T22:03:22.637Z,19.10
2018-07-13T22:05:49.974Z,19.10
2018-07-13T22:08:18.268Z,19.10
2018-07-13T22:10:45.713Z,19.10
2018-07-13T22:13:13.202Z,19.20
2018-07-13T22:15:40.486Z,19.20
2018-07-13T22:18:07.939Z,19.20
2018-07-13T22:20:35.390Z,19.30
2018-07-13T22:23:02.786Z,19.10
2018-07-13T22:25:30.149Z,19.00
2018-07-13T22:27:57.576Z,18.90
2018-07-13T22:30:24.934Z,18.80
2018-07-13T22:32:52.310Z,18.80
2018-07-13T22:35:19.724Z,18.90
2018-07-13T22:37:47.098Z,18.90
2018-07-13T22:40:14.464Z,18.80
2018-07-13T22:42:41.892Z,18.70
2018-07-13T22:45:09.370Z,18.70
2018-07-13T22:47:36.805Z,18.60
2018-07-13T22:50:04.218Z,18.60
2018-07-13T22:52:31.605Z,18.50
2018-07-13T22:54:58.989Z,18.50
2018-07-13T22:57:26.326Z,18.60
2018-07-13T22:59:53.774Z,18.60
2018-07-13T23:02:21.114Z,18.70
2018-07-13T23:04:48.442Z,18.60
2018-07-13T23:07:15.922Z,18.60
2018-07-13T23:09:43.286Z,18.70
2018-07-13T23:12:10.664Z,18.50
2018-07-13T23:14:38.023Z,18.30
2018-07-13T23:17:05.534Z,18.30
2018-07-13T23:19:32.998Z,18.30
2018-07-13T23:22:00.382Z,18.30
2018-07-13T23:24:27.793Z,18.40
2018-07-13T23:26:55.246Z,18.40
2018-07-13T23:29:22.669Z,18.40
2018-07-13T23:31:50.064Z,18.40
2018-07-13T23:34:17.521Z,18.30
2018-07-13T23:36:44.851Z,18.20
2018-07-13T23:41:39.545Z,18.00
2018-07-13T23:44:07.037Z,18.00
2018-07-13T23:46:34.435Z,18.00
2018-07-13T23:49:01.819Z,18.00
2018-07-13T23:51:29.209Z,18.00
2018-07-13T23:53:56.584Z,18.10
2018-07-13T23:56:24.037Z,18.10
2018-07-13T23:58:51.460Z,18.00
